createdAt,value
2023-03-06T00:02:38.675Z,20.57
2023-03-06T00:08:00.549Z,19.10
2023-03-06T00:13:22.319Z,17.30
2023-03-06T00:18:44.152Z,21.30
2023-03-06T00:24:06.078Z,24.73
2023-03-06T00:29:27.938Z,22.17
2023-03-06T00:34:50.623Z,21.47
2023-03-06T00:40:18.304Z,25.88
2023-03-06T00:45:40.114Z,22.27
2023-03-06T00:51:02.026Z,20.57
2023-03-06T00:56:24.068Z,19.50
2023-03-06T01:01:46.099Z,21.40
2023-03-06T01:07:07.933Z,22.13
2023-03-06T01:12:29.662Z,21.80
2023-03-06T01:17:57.076Z,20.70
2023-03-06T01:23:18.800Z,23.40
2023-03-06T01:28:40.712Z,20.43
2023-03-06T01:34:02.453Z,26.10
2023-03-06T01:39:24.226Z,22.07
2023-03-06T01:45:08.043Z,21.00
2023-03-06T01:50:29.797Z,23.20
2023-03-06T01:55:52.080Z,20.47
2023-03-06T02:01:14.777Z,20.93
2023-03-06T02:06:39.327Z,16.00
2023-03-06T02:12:02.254Z,15.03
2023-03-06T02:17:24.417Z,14.97
2023-03-06T02:22:53.953Z,15.80
2023-03-06T02:28:19.671Z,17.30
2023-03-06T02:33:41.439Z,18.63
2023-03-06T02:39:03.395Z,15.77
2023-03-06T02:44:27.477Z,19.37
2023-03-06T02:49:49.192Z,16.83
2023-03-06T02:55:11.092Z,20.50
2023-03-06T03:00:33.404Z,19.70
2023-03-06T03:05:55.125Z,16.97
2023-03-06T03:11:16.831Z,19.70
2023-03-06T03:16:39.266Z,16.57
2023-03-06T03:22:01.195Z,20.37
2023-03-06T03:27:22.863Z,19.73
2023-03-06T03:32:44.607Z,25.30
2023-03-06T03:38:06.281Z,29.67
2023-03-06T03:43:28.008Z,34.07
2023-03-06T03:48:49.678Z,45.40
2023-03-06T03:54:11.367Z,47.33
2023-03-06T03:59:33.050Z,47.87
2023-03-06T04:04:54.851Z,41.77
2023-03-06T04:10:16.605Z,45.17
2023-03-06T04:15:38.321Z,30.17
2023-03-06T04:21:00.039Z,37.87
2023-03-06T04:26:21.776Z,29.07
2023-03-06T04:31:43.527Z,32.37
2023-03-06T04:37:05.490Z,32.07
2023-03-06T04:42:27.215Z,24.50
2023-03-06T04:47:49.286Z,54.37
2023-03-06T04:53:11.035Z,88.30
2023-03-06T04:58:32.763Z,85.27
2023-03-06T05:03:54.425Z,58.00
2023-03-06T05:09:16.120Z,43.07
2023-03-06T05:14:38.021Z,36.83
2023-03-06T05:19:59.996Z,39.10
2023-03-06T05:25:21.694Z,37.40
2023-03-06T05:30:43.419Z,25.07
2023-03-06T05:36:07.797Z,27.67
2023-03-06T05:41:29.583Z,33.23
2023-03-06T05:46:51.355Z,24.77
2023-03-06T05:52:13.252Z,20.53
2023-03-06T05:57:35.038Z,25.67
2023-03-06T06:03:00.528Z,22.23
2023-03-06T06:08:22.336Z,23.40
2023-03-06T06:13:44.220Z,23.03
2023-03-06T06:19:05.979Z,14.67
2023-03-06T06:24:27.872Z,14.23
2023-03-06T06:29:52.795Z,13.47
2023-03-06T06:35:14.772Z,11.90
2023-03-06T06:40:36.514Z,16.67
2023-03-06T06:46:18.717Z,16.57
2023-03-06T06:51:41.795Z,22.43
2023-03-06T06:57:03.537Z,22.70
2023-03-06T07:02:25.291Z,17.27
2023-03-06T07:07:47.038Z,18.07
2023-03-06T07:13:08.823Z,26.87
2023-03-06T07:18:30.593Z,16.90
2023-03-06T07:23:52.346Z,16.50
2023-03-06T07:29:14.529Z,21.90
2023-03-06T07:34:36.264Z,16.40
2023-03-06T07:39:58.032Z,21.83
2023-03-06T07:45:19.773Z,21.57
2023-03-06T07:50:41.980Z,14.67
2023-03-06T07:56:08.812Z,12.80
2023-03-06T08:01:30.616Z,14.47
2023-03-06T08:06:54.015Z,16.10
2023-03-06T08:12:16.757Z,15.43
2023-03-06T08:17:38.562Z,19.67
2023-03-06T08:23:00.315Z,12.15
2023-03-06T08:28:22.058Z,15.00
2023-03-06T08:33:43.842Z,11.40
2023-03-06T08:39:06.512Z,13.50
2023-03-06T08:44:28.250Z,11.90
2023-03-06T08:49:50.089Z,13.83
2023-03-06T08:55:14.137Z,11.10
2023-03-06T09:00:37.855Z,11.53
2023-03-06T09:05:59.609Z,11.77
2023-03-06T09:11:23.926Z,10.70
2023-03-06T09:16:45.734Z,17.63
2023-03-06T09:22:07.758Z,9.87
2023-03-06T09:27:29.637Z,9.07
2023-03-06T09:32:51.329Z,9.73
2023-03-06T09:38:13.019Z,15.18
2023-03-06T09:43:40.336Z,8.43
2023-03-06T09:49:25.402Z,14.02
2023-03-06T09:54:54.989Z,9.93
2023-03-06T10:00:23.822Z,9.57
2023-03-06T10:06:09.829Z,10.20
2023-03-06T10:11:39.171Z,11.50
2023-03-06T10:17:01.968Z,8.27
2023-03-06T10:22:27.267Z,9.67
2023-03-06T10:27:57.486Z,9.30
2023-03-06T10:33:29.523Z,11.30
2023-03-06T10:38:51.290Z,9.45
2023-03-06T10:44:12.951Z,11.00
2023-03-06T10:49:37.101Z,13.68
2023-03-06T10:55:25.876Z,10.57
2023-03-06T11:00:47.684Z,9.10
2023-03-06T11:06:15.053Z,11.27
2023-03-06T11:11:38.138Z,8.88
2023-03-06T11:17:00.008Z,8.35
2023-03-06T11:22:21.804Z,11.33
2023-03-06T11:27:46.284Z,10.30
2023-03-06T11:33:19.943Z,9.90
2023-03-06T11:38:49.003Z,9.70
2023-03-06T11:44:37.010Z,8.30
2023-03-06T11:50:20.610Z,9.65
2023-03-06T11:55:54.440Z,10.93
2023-03-06T12:01:41.954Z,9.60
2023-03-06T12:07:27.517Z,9.43
2023-03-06T12:13:14.567Z,10.37
2023-03-06T12:18:54.850Z,12.47
2023-03-06T12:24:46.949Z,9.75
2023-03-06T12:30:21.189Z,12.27
2023-03-06T12:35:51.873Z,11.35
2023-03-06T12:41:36.881Z,9.63
2023-03-06T12:47:04.833Z,7.97
2023-03-06T12:52:31.150Z,8.02
2023-03-06T12:57:53.797Z,13.00
2023-03-06T13:03:59.470Z,9.32
2023-03-06T13:09:58.266Z,10.38
2023-03-06T13:15:46.340Z,8.70
2023-03-06T13:21:42.080Z,12.40
2023-03-06T13:27:09.312Z,11.48
2023-03-06T13:32:33.716Z,9.87
2023-03-06T13:37:56.891Z,11.52
2023-03-06T13:43:21.853Z,8.38
2023-03-06T13:48:45.740Z,8.32
2023-03-06T13:54:38.738Z,6.43
2023-03-06T14:00:11.678Z,8.13
2023-03-06T14:05:42.916Z,7.60
2023-03-06T14:11:15.242Z,17.52
2023-03-06T14:16:50.033Z,7.57
2023-03-06T14:22:18.686Z,8.13
2023-03-06T14:27:48.148Z,7.60
2023-03-06T14:33:11.164Z,8.85
2023-03-06T14:38:43.770Z,9.63
2023-03-06T14:44:16.610Z,12.25
2023-03-06T14:49:38.368Z,10.07
2023-03-06T14:55:00.073Z,11.02
2023-03-06T15:00:24.378Z,11.70
2023-03-06T15:05:47.472Z,14.75
2023-03-06T15:11:09.308Z,10.77
2023-03-06T15:16:31.412Z,23.08
2023-03-06T15:21:53.142Z,10.20
2023-03-06T15:27:19.826Z,13.75
2023-03-06T15:32:42.857Z,12.60
2023-03-06T15:38:23.270Z,9.95
2023-03-06T15:43:45.092Z,17.57
2023-03-06T15:49:14.347Z,12.40
2023-03-06T15:54:36.289Z,11.73
2023-03-06T16:00:00.050Z,10.60
2023-03-06T16:05:22.356Z,10.27
2023-03-06T16:10:45.391Z,7.80
2023-03-06T16:16:07.112Z,10.82
2023-03-06T16:21:28.801Z,12.50
2023-03-06T16:26:51.748Z,11.82
2023-03-06T16:32:13.671Z,11.15
2023-03-06T16:37:35.357Z,11.00
2023-03-06T16:42:57.051Z,12.55
2023-03-06T16:48:18.759Z,14.57
2023-03-06T16:53:40.455Z,12.15
2023-03-06T16:59:02.153Z,10.40
2023-03-06T17:04:23.943Z,14.15
2023-03-06T17:09:45.670Z,12.27
2023-03-06T17:15:08.142Z,10.17
2023-03-06T17:20:29.855Z,11.50
2023-03-06T17:26:04.961Z,11.77
2023-03-06T17:31:27.943Z,11.48
2023-03-06T17:36:49.785Z,14.50
2023-03-06T17:42:11.496Z,13.00
2023-03-06T17:47:33.164Z,16.63
2023-03-06T17:52:54.869Z,14.67
2023-03-06T17:58:16.747Z,13.53
2023-03-06T18:03:39.017Z,12.93
2023-03-06T18:09:01.202Z,13.40
2023-03-06T18:14:22.898Z,14.00
2023-03-06T18:19:44.743Z,13.70
2023-03-06T18:25:06.695Z,15.83
2023-03-06T18:30:28.654Z,13.17
2023-03-06T18:35:50.410Z,16.03
2023-03-06T18:41:13.433Z,13.83
2023-03-06T18:46:37.780Z,12.70
2023-03-06T18:51:59.501Z,17.57
2023-03-06T18:57:21.291Z,14.73
2023-03-06T19:02:43.019Z,17.60
2023-03-06T19:08:05.035Z,13.23
2023-03-06T19:13:26.821Z,14.25
2023-03-06T19:18:48.910Z,19.80
2023-03-06T19:24:13.965Z,14.87
2023-03-06T19:29:36.051Z,16.23
2023-03-06T19:34:59.524Z,15.70
2023-03-06T19:40:21.256Z,14.90
2023-03-06T19:45:44.096Z,12.43
2023-03-06T19:51:07.052Z,14.43
2023-03-06T19:56:30.156Z,12.90
2023-03-06T20:01:51.959Z,14.43
2023-03-06T20:07:13.690Z,12.88
2023-03-06T20:12:35.631Z,14.00
2023-03-06T20:17:57.356Z,13.93
2023-03-06T20:23:19.093Z,18.40
2023-03-06T20:28:42.367Z,17.50
2023-03-06T20:34:04.636Z,16.10
2023-03-06T20:39:26.404Z,15.60
2023-03-06T20:44:48.114Z,16.13
2023-03-06T20:50:10.398Z,14.70
2023-03-06T20:55:36.531Z,15.47
2023-03-06T21:00:59.952Z,21.53
2023-03-06T21:06:23.968Z,14.23
2023-03-06T21:11:46.463Z,12.13
2023-03-06T21:17:08.189Z,18.10
2023-03-06T21:22:30.155Z,15.13
2023-03-06T21:27:51.904Z,13.13
2023-03-06T21:33:13.674Z,14.07
2023-03-06T21:38:36.161Z,12.47
2023-03-06T21:44:00.415Z,17.77
2023-03-06T21:49:25.948Z,18.43
2023-03-06T21:54:49.160Z,15.97
2023-03-06T22:00:12.769Z,15.47
2023-03-06T22:05:34.486Z,16.50
2023-03-06T22:10:56.169Z,14.60
2023-03-06T22:16:18.405Z,15.40
2023-03-06T22:21:40.246Z,20.70
2023-03-06T22:27:01.940Z,15.80
2023-03-06T22:32:23.826Z,18.30
2023-03-06T22:37:45.650Z,16.60
2023-03-06T22:43:07.307Z,16.27
2023-03-06T22:48:29.361Z,15.50
2023-03-06T22:53:51.141Z,15.07
2023-03-06T22:59:12.838Z,14.20
2023-03-06T23:04:34.530Z,17.00
2023-03-06T23:09:56.306Z,13.87
2023-03-06T23:15:18.085Z,15.77
2023-03-06T23:20:43.722Z,17.37
2023-03-06T23:26:07.512Z,15.27
2023-03-06T23:31:30.843Z,15.50
2023-03-06T23:36:52.578Z,13.83
2023-03-06T23:42:14.285Z,18.23
2023-03-06T23:47:36.095Z,15.43
2023-03-06T23:52:57.976Z,14.00
2023-03-06T23:58:20.586Z,20.27
